Houston, Texas
Traffic Map
Current Weather Conditions
Houston, Texas
Overcast
Overcast
41°
Feels Like: 35°
Wind Chill: 35° Ceiling: 500
Heat Index: 41° Visibility: 8mi
Dew Point: 39° Wind: 9mph
Humidity: 93% Direction: 320° (NW)
Pressure: 30.17in Gusts: 0mph
Raw Report DataKMCJ 281715Z AUTO 32008KT 8SM BKN005 OVC010 05/04 A3017 RMK AO1
Traffic Incident Summary
Active as of:
Severity:
Category:
InformationThere was an issue retrieving the traffic information for this location. Please try a different location or try again shortly.
Advertisements
Track Severe Weather on mobile